Kartaly, Russia
Current Conditions -  °F | °C
As of 6:30 AM on Thursday 23 Oct 2014 (Local Time) from USCM Reporting Station
Overcast Overcast  
Wind Chill: 23°   Ceiling: 3200
Heat Index: 32°   Visibility: 5mi
Dew Point: 25°   Wind: 11mph
Humidity: 75%   Direction: 320°NW
Pressure: 29.5"   Gusts: NA
Location:  53.05°N, 60.67°E
Report Text: USCM 230030Z 32005MPS 8000 BKN032CB OVC100 00/M04 Q0999 NOSIG01290257 RMK QFE711
Loading
Personal Weather Stations






























Interactive Weather Map
Tropical Storm Tracking
New forecast layout! Learn more

10-Day Weather Forecast

Advertisements
Track Severe Weather on mobile